createdAt,value
2019-01-24T00:00:14.461Z,-1.17
2019-01-24T00:02:42.989Z,-1.33
2019-01-24T00:05:11.657Z,-1.23
2019-01-24T00:07:40.138Z,-1.21
2019-01-24T00:10:11.930Z,-1.14
2019-01-24T00:12:40.372Z,-1.05
2019-01-24T00:15:10.227Z,-1.06
2019-01-24T00:17:38.725Z,-1.03
2019-01-24T00:20:09.976Z,-1.10
2019-01-24T00:22:38.690Z,-0.95
2019-01-24T00:25:08.781Z,-0.98
2019-01-24T00:27:37.333Z,-1.05
2019-01-24T00:30:11.995Z,-0.86
2019-01-24T00:32:40.459Z,-1.09
2019-01-24T00:35:09.779Z,-1.07
2019-01-24T00:37:38.509Z,-0.98
2019-01-24T00:40:13.017Z,-0.97
2019-01-24T00:42:41.449Z,-0.96
2019-01-24T00:48:38.423Z,-1.03
2019-01-24T00:51:06.873Z,-0.95
2019-01-24T00:53:35.321Z,-1.17
2019-01-24T00:56:03.968Z,-1.07
2019-01-24T00:58:32.400Z,-1.24
2019-01-24T01:01:00.910Z,-1.12
2019-01-24T01:03:29.486Z,-1.08
2019-01-24T01:05:57.989Z,-1.10
2019-01-24T01:08:26.421Z,-1.15
2019-01-24T01:10:54.992Z,-0.94
2019-01-24T01:13:23.426Z,-0.97
2019-01-24T01:15:52.006Z,-0.97
2019-01-24T01:18:20.602Z,-1.18
2019-01-24T01:20:49.126Z,-1.17
2019-01-24T01:23:17.559Z,-1.29
2019-01-24T01:25:46.489Z,-1.16
2019-01-24T01:28:15.264Z,-1.14
2019-01-24T01:30:43.838Z,-0.98
2019-01-24T01:33:12.487Z,-1.10
2019-01-24T01:35:40.926Z,-1.21
2019-01-24T01:38:10.085Z,-1.10
2019-01-24T01:40:38.715Z,-0.99
2019-01-24T01:43:07.219Z,-1.23
2019-01-24T01:45:35.790Z,-1.15
2019-01-24T01:48:04.428Z,-1.08
2019-01-24T01:50:32.871Z,-1.10
2019-01-24T01:53:01.302Z,-1.10
2019-01-24T01:55:30.010Z,-1.20
2019-01-24T01:57:58.442Z,-0.97
2019-01-24T02:00:26.947Z,-0.94
2019-01-24T02:02:55.402Z,-1.12
2019-01-24T02:05:23.973Z,-0.92
2019-01-24T02:07:52.477Z,-1.03
2019-01-24T02:10:23.341Z,-1.06
2019-01-24T02:12:52.109Z,-1.04
2019-01-24T02:15:21.377Z,-0.95
2019-01-24T02:17:50.573Z,-0.89
2019-01-24T02:20:20.944Z,-1.20
2019-01-24T02:22:49.513Z,-1.18
2019-01-24T02:25:18.311Z,-1.10
2019-01-24T02:27:46.913Z,-1.02
2019-01-24T02:30:24.458Z,-1.21
2019-01-24T02:32:53.017Z,-1.20
2019-01-24T02:35:21.525Z,-1.10
2019-01-24T02:37:50.272Z,-1.07
2019-01-24T02:40:19.040Z,-1.04
2019-01-24T02:42:47.472Z,-0.99
2019-01-24T02:45:21.578Z,-1.23
2019-01-24T02:47:50.145Z,-1.17
2019-01-24T02:50:20.526Z,-1.24
2019-01-24T02:52:49.141Z,-1.16
2019-01-24T02:55:17.710Z,-1.32
2019-01-24T02:57:46.377Z,-1.37
2019-01-24T03:00:20.003Z,-1.29
2019-01-24T03:02:48.870Z,-1.21
2019-01-24T03:05:19.749Z,-1.30
2019-01-24T03:07:48.753Z,-1.20
2019-01-24T03:10:17.528Z,-1.37
2019-01-24T03:12:46.189Z,-1.20
2019-01-24T03:15:17.514Z,-1.19
2019-01-24T03:17:46.093Z,-1.34
2019-01-24T03:20:16.455Z,-1.28
2019-01-24T03:22:45.366Z,-1.29
2019-01-24T03:25:16.053Z,-1.52
2019-01-24T03:27:44.535Z,-1.50
2019-01-24T03:30:18.426Z,-1.27
2019-01-24T03:32:46.937Z,-1.46
2019-01-24T03:35:21.452Z,-1.44
2019-01-24T03:37:49.993Z,-1.40
2019-01-24T03:40:18.757Z,-1.46
2019-01-24T03:42:47.264Z,-1.38
2019-01-24T03:45:17.477Z,-1.16
2019-01-24T03:47:45.908Z,-1.19
2019-01-24T03:50:19.338Z,-1.38
2019-01-24T03:52:48.715Z,-1.50
2019-01-24T03:55:19.393Z,-1.36
2019-01-24T03:57:47.973Z,-1.33
2019-01-24T04:00:21.237Z,-1.37
2019-01-24T04:02:49.929Z,-1.54
2019-01-24T04:05:18.729Z,-1.51
2019-01-24T04:07:47.225Z,-1.54
2019-01-24T04:10:17.801Z,-1.51
2019-01-24T04:12:46.491Z,-1.46
2019-01-24T04:15:20.120Z,-1.45
2019-01-24T04:17:48.767Z,-1.47
2019-01-24T04:20:17.438Z,-1.43
2019-01-24T04:22:46.096Z,-1.47
2019-01-24T04:25:14.679Z,-1.45
2019-01-24T04:27:43.109Z,-1.39
2019-01-24T04:30:20.377Z,-1.42
2019-01-24T04:32:48.954Z,-1.38
2019-01-24T04:35:20.061Z,-1.30
2019-01-24T04:37:48.430Z,-1.42
2019-01-24T04:40:20.484Z,-1.38
2019-01-24T04:42:49.159Z,-1.20
2019-01-24T04:45:18.370Z,-1.32
2019-01-24T04:47:46.806Z,-1.43
2019-01-24T04:50:16.901Z,-1.32
2019-01-24T04:52:45.530Z,-1.30
2019-01-24T04:55:16.305Z,-1.33
2019-01-24T04:57:44.742Z,-1.40
2019-01-24T05:00:19.158Z,-1.52
2019-01-24T05:02:47.661Z,-1.42
2019-01-24T05:05:16.097Z,-1.36
2019-01-24T05:07:44.726Z,-1.37
2019-01-24T05:10:53.069Z,-1.48
2019-01-24T05:15:55.441Z,-1.59
2019-01-24T05:20:58.226Z,-1.35
2019-01-24T05:23:26.656Z,-1.19
2019-01-24T05:25:55.129Z,-1.20
2019-01-24T05:28:23.567Z,-1.31
2019-01-24T05:30:51.998Z,-0.78
2019-01-24T05:33:20.458Z,-0.91
2019-01-24T05:36:08.129Z,-0.77
2019-01-24T05:38:36.584Z,-0.91
2019-01-24T05:41:24.368Z,-1.17
2019-01-24T05:43:53.656Z,-0.85
2019-01-24T05:46:22.989Z,-1.16
2019-01-24T05:48:51.423Z,-1.22
2019-01-24T05:51:19.917Z,-1.27
2019-01-24T05:53:48.357Z,-1.20
2019-01-24T05:56:36.125Z,-1.25
2019-01-24T05:59:23.814Z,-1.32
2019-01-24T06:07:02.151Z,-1.02
2019-01-24T06:12:44.539Z,-0.96
2019-01-24T06:15:52.911Z,-1.25
2019-01-24T06:18:21.346Z,-1.10
2019-01-24T06:20:49.781Z,-1.08
2019-01-24T06:23:18.243Z,-1.15
2019-01-24T06:26:05.921Z,-1.17
2019-01-24T06:28:34.392Z,-1.25
2019-01-24T06:31:02.825Z,-1.04
2019-01-24T06:33:31.258Z,-1.17
2019-01-24T06:35:59.729Z,-1.07
2019-01-24T06:38:28.161Z,-1.27
2019-01-24T06:40:56.595Z,-1.14
2019-01-24T06:43:25.058Z,-1.10
2019-01-24T06:45:53.489Z,-1.02
2019-01-24T06:48:21.923Z,-1.16
2019-01-24T06:56:00.093Z,-1.34
2019-01-24T07:01:02.129Z,-1.12
2019-01-24T07:03:30.586Z,-1.04
2019-01-24T07:06:18.207Z,-1.16
2019-01-24T07:08:46.689Z,-1.24
2019-01-24T07:11:15.102Z,-1.29
2019-01-24T07:14:02.978Z,-1.34
2019-01-24T07:16:31.410Z,-1.36
2019-01-24T07:18:59.866Z,-1.52
2019-01-24T07:24:02.804Z,-1.51
2019-01-24T07:29:43.710Z,-1.37
2019-01-24T07:32:12.173Z,-1.30
2019-01-24T07:34:40.609Z,-1.34
2019-01-24T07:37:09.042Z,-1.18
2019-01-24T07:39:37.521Z,-1.36
2019-01-24T07:42:05.953Z,-1.41
2019-01-24T07:44:34.386Z,-1.42
2019-01-24T07:47:02.852Z,-1.59
2019-01-24T07:49:31.312Z,-1.54
2019-01-24T07:51:59.789Z,-1.50
2019-01-24T07:57:02.920Z,-1.59
2019-01-24T08:02:44.738Z,-1.37
2019-01-24T08:05:53.182Z,-1.70
2019-01-24T08:08:21.613Z,-1.90
2019-01-24T08:11:09.298Z,-2.07
2019-01-24T08:13:37.749Z,-2.33
2019-01-24T08:16:06.189Z,-2.34
2019-01-24T08:18:34.672Z,-2.22
2019-01-24T08:21:03.105Z,-2.16
2019-01-24T08:23:31.536Z,-2.25
2019-01-24T08:25:59.996Z,-2.23
2019-01-24T08:28:28.440Z,-2.29
2019-01-24T08:30:56.873Z,-2.51
2019-01-24T08:33:25.416Z,-2.45
2019-01-24T08:36:15.692Z,-2.36
2019-01-24T08:41:37.015Z,-2.39
2019-01-24T08:46:58.555Z,-2.37
2019-01-24T08:49:27.053Z,-2.48
2019-01-24T08:51:55.557Z,-2.40
2019-01-24T08:54:23.990Z,-2.35
2019-01-24T08:59:29.765Z,-2.18
2019-01-24T09:04:30.817Z,-2.28
2019-01-24T09:09:33.262Z,-1.99
2019-01-24T09:14:35.378Z,-2.06
2019-01-24T09:25:48.822Z,-1.75
2019-01-24T09:30:51.797Z,-1.70
2019-01-24T09:33:20.296Z,-1.85
2019-01-24T09:35:48.725Z,-1.73
2019-01-24T09:38:17.160Z,-1.81
2019-01-24T09:40:45.630Z,-1.62
2019-01-24T09:43:14.061Z,-1.73
2019-01-24T09:45:42.493Z,-1.62
2019-01-24T09:51:23.506Z,-1.52
2019-01-24T09:56:25.786Z,-1.60
2019-01-24T09:59:13.439Z,-1.64
2019-01-24T10:01:41.871Z,-1.46
2019-01-24T10:04:10.301Z,-1.47
2019-01-24T10:06:38.770Z,-1.45
2019-01-24T10:09:47.113Z,-1.35
2019-01-24T10:12:34.985Z,-1.46
2019-01-24T10:15:22.745Z,-1.40
2019-01-24T10:20:45.241Z,-1.47
2019-01-24T10:23:13.674Z,-1.42
2019-01-24T10:26:22.071Z,-1.50
2019-01-24T10:29:09.823Z,-1.58
2019-01-24T10:31:57.541Z,-1.42
2019-01-24T10:34:26.040Z,-1.36
2019-01-24T10:36:54.496Z,-1.38
2019-01-24T10:39:42.254Z,-1.54
2019-01-24T10:42:30.024Z,-1.56
2019-01-24T10:47:32.882Z,-1.50
2019-01-24T10:52:34.929Z,-1.48
2019-01-24T10:55:43.378Z,-1.29
2019-01-24T10:58:31.129Z,-1.48
2019-01-24T11:03:33.716Z,-1.32
2019-01-24T11:06:02.188Z,-1.53
2019-01-24T11:08:30.618Z,-1.63
2019-01-24T11:10:59.049Z,-1.69
2019-01-24T11:13:46.828Z,-1.65
2019-01-24T11:16:15.262Z,-1.49
2019-01-24T11:18:43.694Z,-1.45
2019-01-24T11:21:12.199Z,-1.44
2019-01-24T11:23:59.947Z,-1.34
2019-01-24T11:26:47.738Z,-1.24
2019-01-24T11:29:16.182Z,-1.14
2019-01-24T11:32:03.825Z,-1.12
2019-01-24T11:34:51.497Z,-1.15
2019-01-24T11:37:20.014Z,-1.25
2019-01-24T11:39:48.455Z,-1.23
2019-01-24T11:42:16.913Z,-0.93
2019-01-24T11:44:45.362Z,-0.61
2019-01-24T11:47:13.818Z,-0.54
2019-01-24T11:49:42.319Z,-0.66
2019-01-24T11:55:04.469Z,-0.28
2019-01-24T11:57:32.925Z,-0.47
2019-01-24T12:00:01.367Z,-0.55
2019-01-24T12:02:29.798Z,-0.15
2019-01-24T12:04:58.254Z,-0.30
2019-01-24T12:07:26.681Z,-0.22
2019-01-24T12:09:55.113Z,-0.32
2019-01-24T12:12:42.840Z,-0.44
2019-01-24T12:15:51.192Z,-0.16
2019-01-24T12:18:19.690Z,-0.04
2019-01-24T12:21:07.309Z,-0.06
2019-01-24T12:23:47.562Z,-0.29
2019-01-24T12:26:15.996Z,-0.21
2019-01-24T12:28:44.431Z,-0.23
2019-01-24T12:33:46.657Z,-0.14
2019-01-24T12:36:15.092Z,-0.15
2019-01-24T12:41:17.941Z,-0.03
2019-01-24T12:46:20.828Z,-0.10
2019-01-24T12:49:08.413Z,0.01
2019-01-24T12:51:36.848Z,0.14
2019-01-24T12:54:45.311Z,-0.28
2019-01-24T12:57:13.725Z,-0.08
2019-01-24T12:59:42.152Z,0.02
2019-01-24T13:02:50.527Z,0.11
2019-01-24T13:05:38.278Z,0.00
2019-01-24T13:08:46.694Z,0.00
2019-01-24T13:11:15.121Z,-0.19
2019-01-24T13:13:43.590Z,-0.21
2019-01-24T13:16:12.058Z,-0.08
2019-01-24T13:18:40.493Z,-0.05
2019-01-24T13:21:08.925Z,-0.11
2019-01-24T13:23:37.385Z,-0.09
2019-01-24T13:26:32.856Z,0.02
2019-01-24T13:29:41.228Z,-0.08
2019-01-24T13:32:28.972Z,0.15
2019-01-24T13:37:31.826Z,-0.18
2019-01-24T13:42:33.946Z,-0.07
2019-01-24T13:45:02.412Z,-0.15
2019-01-24T13:47:30.848Z,-0.09
2019-01-24T13:49:59.294Z,-0.13
2019-01-24T13:55:02.161Z,0.05
2019-01-24T14:00:44.471Z,-0.04
2019-01-24T14:03:32.346Z,-0.12
2019-01-24T14:06:00.778Z,-0.03
2019-01-24T14:08:29.211Z,-0.15
2019-01-24T14:10:58.118Z,-0.15
2019-01-24T14:13:27.817Z,0.18
2019-01-24T14:15:56.246Z,-0.09
2019-01-24T14:20:59.296Z,-0.10
2019-01-24T14:23:47.171Z,0.17
2019-01-24T14:26:34.855Z,-0.10
2019-01-24T14:29:22.493Z,-0.12
2019-01-24T14:31:50.923Z,0.11
2019-01-24T14:34:19.351Z,0.13
2019-01-24T14:39:41.093Z,0.32
2019-01-24T14:42:09.524Z,0.42
2019-01-24T14:44:38.016Z,0.44
2019-01-24T14:47:46.365Z,0.27
2019-01-24T14:50:54.820Z,0.43
2019-01-24T14:53:23.284Z,0.28
2019-01-24T14:55:51.680Z,0.32
2019-01-24T14:58:39.708Z,0.34
2019-01-24T15:01:48.053Z,0.43
2019-01-24T15:06:50.197Z,0.38
2019-01-24T15:09:18.696Z,0.45
2019-01-24T15:14:21.576Z,0.57
2019-01-24T15:16:50.143Z,0.83
2019-01-24T15:19:18.573Z,0.46
2019-01-24T15:21:47.006Z,0.33
2019-01-24T15:24:15.456Z,0.41
2019-01-24T15:26:43.883Z,0.42
2019-01-24T15:29:12.313Z,0.45
2019-01-24T15:31:40.806Z,0.34
2019-01-24T15:34:28.422Z,0.23
2019-01-24T15:39:30.747Z,0.21
2019-01-24T15:41:59.207Z,0.33
2019-01-24T15:49:48.764Z,0.17
2019-01-24T15:54:51.707Z,0.07
2019-01-24T15:57:20.135Z,0.12
2019-01-24T15:59:48.706Z,0.17
2019-01-24T16:02:17.163Z,-0.06
2019-01-24T16:04:45.588Z,0.20
2019-01-24T16:09:47.533Z,0.27
2019-01-24T16:12:15.959Z,0.24
2019-01-24T16:17:18.793Z,-0.15
2019-01-24T16:19:47.264Z,-0.17
2019-01-24T16:22:15.692Z,0.13
2019-01-24T16:24:44.125Z,-0.11
2019-01-24T16:27:12.584Z,0.08
2019-01-24T16:29:41.013Z,-0.27
2019-01-24T16:32:09.581Z,-0.02
2019-01-24T16:34:38.036Z,0.01
2019-01-24T16:37:06.468Z,-0.03
2019-01-24T16:39:34.896Z,0.04
2019-01-24T16:42:03.402Z,-0.19
2019-01-24T16:44:31.839Z,-0.28
2019-01-24T16:47:00.274Z,-0.29
2019-01-24T16:49:28.734Z,-0.24
2019-01-24T16:51:57.166Z,-0.37
2019-01-24T16:54:44.954Z,-0.21
2019-01-24T16:57:13.419Z,-0.35
2019-01-24T16:59:41.853Z,-0.27
2019-01-24T17:04:44.294Z,-0.33
2019-01-24T17:07:31.994Z,-0.13
2019-01-24T17:10:19.745Z,-0.07
2019-01-24T17:15:42.263Z,-0.04
2019-01-24T17:18:30.959Z,0.01
2019-01-24T17:20:59.392Z,-0.14
2019-01-24T17:23:47.046Z,-0.14
2019-01-24T17:26:15.488Z,-0.27
2019-01-24T17:29:03.135Z,-0.16
2019-01-24T17:31:31.565Z,-0.01
2019-01-24T17:33:59.997Z,-0.12
2019-01-24T17:36:47.725Z,-0.27
2019-01-24T17:39:16.214Z,-0.33
2019-01-24T17:42:03.810Z,-0.48
2019-01-24T17:44:32.243Z,-0.48
2019-01-24T17:47:00.745Z,-0.40
2019-01-24T17:52:03.703Z,-0.45
2019-01-24T17:54:32.174Z,-0.37
2019-01-24T17:57:00.630Z,-0.39
2019-01-24T18:02:22.106Z,-0.44
2019-01-24T18:04:50.567Z,-0.48
2019-01-24T18:10:14.187Z,-0.54
2019-01-24T18:12:42.865Z,-0.64
2019-01-24T18:15:51.214Z,-0.57
2019-01-24T18:21:13.426Z,-0.64
2019-01-24T18:23:41.899Z,-0.65
2019-01-24T18:26:29.515Z,-0.68
2019-01-24T18:29:17.130Z,-0.64
2019-01-24T18:31:45.562Z,-0.79
2019-01-24T18:34:13.994Z,-0.77
2019-01-24T18:36:42.466Z,-0.96
2019-01-24T18:39:50.824Z,-0.89
2019-01-24T18:42:38.601Z,-0.85
2019-01-24T18:45:46.945Z,-0.85
2019-01-24T18:48:55.651Z,-0.80
2019-01-24T18:51:24.157Z,-0.71
2019-01-24T18:54:11.861Z,-0.52
2019-01-24T18:56:59.485Z,-0.37
2019-01-24T18:59:27.981Z,0.03
2019-01-24T19:01:56.412Z,-0.05
2019-01-24T19:04:44.096Z,-0.31
2019-01-24T19:10:20.755Z,-0.48
2019-01-24T19:13:08.428Z,-0.34
2019-01-24T19:21:24.706Z,-0.36
2019-01-24T19:23:53.173Z,-0.31
2019-01-24T19:26:40.934Z,-0.40
2019-01-24T19:29:09.399Z,-0.56
2019-01-24T19:31:37.840Z,-0.58
2019-01-24T19:34:06.424Z,-0.50
2019-01-24T19:39:48.516Z,-0.36
2019-01-24T19:44:51.291Z,-0.58
2019-01-24T19:47:38.992Z,-0.50
2019-01-24T19:50:47.373Z,-0.47
2019-01-24T19:53:35.057Z,-0.51
2019-01-24T19:56:03.601Z,-0.52
2019-01-24T19:58:32.037Z,-0.46
2019-01-24T20:06:09.105Z,-0.53
2019-01-24T20:09:00.250Z,-0.69
2019-01-24T20:14:01.018Z,-0.75
2019-01-24T20:16:48.838Z,-0.84
2019-01-24T20:19:17.278Z,-0.60
2019-01-24T20:22:05.228Z,-0.76
2019-01-24T20:24:33.671Z,-0.84
2019-01-24T20:27:02.122Z,-0.73
2019-01-24T20:29:30.595Z,-0.87
2019-01-24T20:31:59.045Z,-0.98
2019-01-24T20:34:46.736Z,-0.99
2019-01-24T20:37:15.194Z,-1.02
2019-01-24T20:39:43.658Z,-1.01
2019-01-24T20:42:31.480Z,-0.98
2019-01-24T20:44:59.943Z,-0.72
2019-01-24T20:47:28.378Z,-0.97
2019-01-24T20:52:31.371Z,-1.00
2019-01-24T20:55:39.796Z,-1.04
2019-01-24T21:03:55.314Z,-0.70
2019-01-24T21:06:39.768Z,-0.91
2019-01-24T21:09:48.119Z,-0.97
2019-01-24T21:14:50.978Z,-1.02
2019-01-24T21:19:53.886Z,-0.94
2019-01-24T21:22:41.614Z,-0.99
2019-01-24T21:25:49.963Z,-1.09
2019-01-24T21:28:18.447Z,-0.91
2019-01-24T21:33:54.979Z,-1.02
2019-01-24T21:36:23.414Z,-0.85
2019-01-24T21:38:51.850Z,-1.01
2019-01-24T21:41:20.308Z,-1.11
2019-01-24T21:43:48.767Z,-0.99
2019-01-24T21:46:17.178Z,-1.09
2019-01-24T21:48:45.639Z,-1.17
2019-01-24T21:51:14.113Z,-1.10
2019-01-24T21:53:42.546Z,-1.24
2019-01-24T21:56:11.190Z,-1.26
2019-01-24T21:58:39.627Z,-1.21
2019-01-24T22:01:08.062Z,-1.28
2019-01-24T22:03:55.651Z,-1.17
2019-01-24T22:06:24.086Z,-1.02
2019-01-24T22:08:52.522Z,-1.19
2019-01-24T22:11:40.318Z,-1.32
2019-01-24T22:14:28.073Z,-1.33
2019-01-24T22:16:56.534Z,-1.17
2019-01-24T22:19:24.971Z,-1.15
2019-01-24T22:22:12.631Z,-1.35
2019-01-24T22:24:41.076Z,-1.20
2019-01-24T22:27:29.107Z,-1.30
2019-01-24T22:29:57.565Z,-1.39
2019-01-24T22:32:45.227Z,-1.21
2019-01-24T22:35:53.585Z,-1.35
2019-01-24T22:40:55.944Z,-1.38
2019-01-24T22:43:24.380Z,-1.34
2019-01-24T22:48:26.954Z,-1.36
2019-01-24T22:53:29.042Z,-1.34
2019-01-24T22:56:37.437Z,-1.40
2019-01-24T22:59:25.194Z,-1.40
2019-01-24T23:02:33.567Z,-1.37
2019-01-24T23:05:02.009Z,-1.46
2019-01-24T23:07:30.448Z,-1.39
2019-01-24T23:12:32.948Z,-1.47
2019-01-24T23:15:01.488Z,-1.43
2019-01-24T23:17:49.109Z,-1.34
2019-01-24T23:23:11.953Z,-1.39
2019-01-24T23:25:40.399Z,-1.39
2019-01-24T23:36:50.959Z,-1.64
2019-01-24T23:41:53.733Z,-1.62
2019-01-24T23:44:41.450Z,-1.61
2019-01-24T23:47:09.899Z,-1.59
2019-01-24T23:49:38.323Z,-1.56
2019-01-24T23:52:26.051Z,-1.61
2019-01-24T23:54:54.500Z,-1.69
2019-01-24T23:57:24.032Z,-1.71
2019-01-24T23:59:53.123Z,-1.84
